Time;durP1;ratioP1;P1;durP2;ratioP2;P2;SDS_P1;SDS_P2;PMS_P1;PMS_P2;Temp;Humidity;BMP_temperature;BMP_pressure;BME280_temperature;BME280_humidity;BME280_pressure;Samples;Min_cycle;Max_cycle;Signal;HPM_P1;HPM_P2
2020/12/12 00:00:05;;;;;;;29.15;19.85;;;4.80;99.90;;;;;;5039860;28;20197;-85
2020/12/12 00:02:32;;;;;;;29.73;18.63;;;4.80;99.90;;;;;;5048360;28;20223;-83
2020/12/12 00:04:58;;;;;;;26.60;19.75;;;4.70;99.90;;;;;;5048792;28;20197;-85
2020/12/12 00:07:26;;;;;;;32.00;20.40;;;4.70;99.90;;;;;;5050635;28;20243;-84
2020/12/12 00:09:53;;;;;;;34.20;21.08;;;4.70;99.90;;;;;;5049385;28;20208;-87
2020/12/12 00:12:19;;;;;;;33.33;20.92;;;4.70;99.90;;;;;;5047953;28;20707;-85
2020/12/12 00:14:46;;;;;;;29.13;19.23;;;4.80;99.90;;;;;;5047487;28;20203;-84
2020/12/12 00:17:13;;;;;;;35.20;21.10;;;4.80;99.90;;;;;;5053644;28;20295;-83
2020/12/12 00:19:39;;;;;;;29.90;19.92;;;4.80;99.90;;;;;;5049627;28;20192;-86
2020/12/12 00:22:06;;;;;;;28.85;20.65;;;4.80;99.90;;;;;;5046122;28;20220;-84
2020/12/12 00:24:33;;;;;;;32.67;21.20;;;4.80;99.90;;;;;;5045852;28;20196;-84
2020/12/12 00:27:00;;;;;;;28.83;20.98;;;4.90;99.90;;;;;;5046447;28;20192;-82
2020/12/12 00:29:27;;;;;;;31.30;19.45;;;4.90;99.90;;;;;;5049622;28;20232;-85
2020/12/12 00:31:54;;;;;;;37.15;21.88;;;4.80;99.90;;;;;;5048276;28;20216;-84
2020/12/12 00:34:21;;;;;;;29.02;21.42;;;4.90;99.90;;;;;;5048106;28;20207;-84
2020/12/12 00:36:49;;;;;;;31.27;20.80;;;4.90;99.90;;;;;;5048704;28;20289;-84
2020/12/12 00:39:15;;;;;;;29.50;21.15;;;4.90;99.90;;;;;;5048659;28;20216;-85
2020/12/12 00:41:43;;;;;;;29.38;20.98;;;5.00;99.90;;;;;;5048078;28;20220;-85
2020/12/12 00:44:10;;;;;;;32.33;20.30;;;5.00;99.90;;;;;;5047502;28;20196;-85
2020/12/12 00:46:38;;;;;;;33.60;21.35;;;5.00;99.90;;;;;;5047715;28;20204;-85
2020/12/12 00:49:06;;;;;;;33.05;22.70;;;5.00;99.90;;;;;;5045535;28;20224;-84
2020/12/12 00:51:36;;;;;;;32.95;23.45;;;4.90;99.90;;;;;;5046394;28;20238;-85
2020/12/12 00:54:02;;;;;;;30.48;20.17;;;4.90;99.90;;;;;;5046073;28;20350;-86
2020/12/12 00:56:29;;;;;;;30.00;21.55;;;4.90;99.90;;;;;;5055589;28;20183;-86
2020/12/12 00:58:57;;;;;;;34.33;22.35;;;4.90;99.90;;;;;;5046820;28;20191;-86
2020/12/12 01:01:23;;;;;;;29.33;20.00;;;5.00;99.90;;;;;;5047319;28;20275;-84
2020/12/12 01:03:53;;;;;;;31.17;21.90;;;5.00;99.90;;;;;;5044903;28;20207;-84
2020/12/12 01:06:21;;;;;;;28.40;20.20;;;5.00;99.90;;;;;;5044412;28;20290;-83
2020/12/12 01:08:50;;;;;;;33.40;23.33;;;5.00;99.90;;;;;;5044575;28;20228;-83
2020/12/12 01:11:22;;;;;;;33.58;23.33;;;5.00;99.90;;;;;;5045673;28;20231;-83
2020/12/12 01:13:48;;;;;;;30.05;21.45;;;4.80;99.90;;;;;;5049802;28;20199;-83
2020/12/12 01:16:16;;;;;;;32.10;21.00;;;5.00;99.90;;;;;;5052914;28;20203;-84
2020/12/12 01:18:43;;;;;;;35.97;23.08;;;4.90;99.90;;;;;;5053829;28;20201;-84
2020/12/12 01:21:14;;;;;;;31.77;22.05;;;4.90;99.90;;;;;;5054172;28;20227;-84
2020/12/12 01:23:41;;;;;;;40.15;24.48;;;4.90;99.90;;;;;;5053422;28;20169;-84
2020/12/12 01:26:07;;;;;;;35.97;23.42;;;5.00;99.90;;;;;;5056308;28;20200;-83
2020/12/12 01:28:35;;;;;;;34.05;23.60;;;5.00;99.90;;;;;;5059749;28;20288;-85
2020/12/12 01:31:01;;;;;;;37.53;23.35;;;5.00;99.90;;;;;;5060242;28;20355;-83
2020/12/12 01:33:29;;;;;;;35.40;22.92;;;5.00;99.90;;;;;;5060156;28;20188;-83
2020/12/12 01:35:56;;;;;;;37.55;24.70;;;5.10;99.90;;;;;;5059562;28;20208;-85
2020/12/12 01:38:22;;;;;;;33.92;23.58;;;5.10;99.90;;;;;;5058086;28;20242;-82
2020/12/12 01:40:55;;;;;;;36.72;24.42;;;5.10;99.90;;;;;;5056329;28;20214;-84
2020/12/12 01:43:22;;;;;;;44.78;25.40;;;5.10;99.90;;;;;;5049564;28;20207;-82
2020/12/12 01:45:48;;;;;;;39.28;25.20;;;5.00;99.90;;;;;;5045710;28;20214;-84
2020/12/12 01:48:15;;;;;;;31.52;23.05;;;5.00;99.90;;;;;;5048263;28;20227;-83
2020/12/12 01:50:43;;;;;;;36.05;25.30;;;5.00;99.90;;;;;;5048832;28;20224;-83
2020/12/12 01:53:12;;;;;;;42.88;28.77;;;4.90;99.90;;;;;;5051466;28;20200;-83
2020/12/12 01:55:42;;;;;;;45.28;27.88;;;5.00;99.90;;;;;;5048071;28;20692;-84
2020/12/12 01:58:09;;;;;;;42.38;29.30;;;4.90;99.90;;;;;;5048234;28;20645;-84
2020/12/12 02:00:35;;;;;;;44.10;26.80;;;4.90;99.90;;;;;;5047028;28;20302;-84
2020/12/12 02:03:03;;;;;;;42.83;27.98;;;4.90;99.90;;;;;;5047635;28;20200;-85
2020/12/12 02:05:42;;;;;;;42.50;28.02;;;5.00;99.90;;;;;;5047775;28;20211;-86
2020/12/12 02:08:12;;;;;;;47.50;28.13;;;5.00;99.90;;;;;;5048162;28;20212;-84
2020/12/12 02:10:41;;;;;;;46.85;28.40;;;5.00;99.90;;;;;;5048517;28;20274;-83
2020/12/12 02:13:10;;;;;;;44.17;27.92;;;5.00;99.90;;;;;;5049438;28;20211;-83
2020/12/12 02:15:37;;;;;;;38.97;27.58;;;5.00;99.90;;;;;;5048916;28;20594;-84
2020/12/12 02:18:05;;;;;;;44.33;28.13;;;5.00;99.90;;;;;;5048551;28;20192;-83
2020/12/12 02:20:32;;;;;;;44.45;29.50;;;4.90;99.90;;;;;;5047724;28;20536;-85
2020/12/12 02:22:59;;;;;;;41.90;29.70;;;4.90;99.90;;;;;;5047542;28;20276;-86
2020/12/12 02:25:26;;;;;;;44.05;29.10;;;5.00;99.90;;;;;;5046763;28;20200;-83
2020/12/12 02:27:56;;;;;;;63.78;32.75;;;4.90;99.90;;;;;;5048852;28;20207;-84
2020/12/12 02:30:23;;;;;;;44.75;28.30;;;4.90;99.90;;;;;;5046197;28;20258;-83
2020/12/12 02:32:50;;;;;;;45.97;28.42;;;5.00;99.90;;;;;;5055094;28;20214;-84
2020/12/12 02:35:17;;;;;;;42.53;28.83;;;5.00;99.90;;;;;;5053187;28;20607;-82
2020/12/12 02:37:44;;;;;;;45.47;26.98;;;5.10;99.90;;;;;;5048454;28;20216;-83
2020/12/12 02:40:11;;;;;;;45.30;29.10;;;5.00;99.90;;;;;;5047586;28;20229;-84
2020/12/12 02:42:40;;;;;;;45.35;28.08;;;5.00;99.90;;;;;;5045645;28;20234;-84
2020/12/12 02:45:07;;;;;;;38.53;27.50;;;5.00;99.90;;;;;;5047413;28;20215;-84
2020/12/12 02:47:35;;;;;;;42.50;26.23;;;4.90;99.90;;;;;;5045033;28;20222;-84
2020/12/12 02:50:11;;;;;;;37.95;27.20;;;5.00;99.90;;;;;;5046440;28;20291;-83
2020/12/12 02:52:38;;;;;;;45.83;29.80;;;5.10;99.90;;;;;;5047178;28;20263;-84
2020/12/12 02:55:06;;;;;;;40.45;27.25;;;5.10;99.90;;;;;;5051950;28;20210;-84
2020/12/12 02:57:34;;;;;;;44.97;30.55;;;5.10;99.90;;;;;;5052716;28;20207;-82
2020/12/12 03:00:01;;;;;;;41.33;27.20;;;5.10;99.90;;;;;;5052025;28;20211;-83
2020/12/12 03:02:27;;;;;;;43.92;27.60;;;5.10;99.90;;;;;;5051296;28;20196;-84
2020/12/12 03:04:54;;;;;;;47.42;30.58;;;5.10;99.90;;;;;;5050829;28;20205;-83
2020/12/12 03:07:21;;;;;;;47.28;30.38;;;5.10;99.90;;;;;;5050892;28;20231;-82
2020/12/12 03:09:48;;;;;;;43.35;28.42;;;5.10;99.90;;;;;;5057763;28;20232;-83
2020/12/12 03:12:14;;;;;;;46.25;30.20;;;5.10;99.90;;;;;;5051486;28;20235;-83
2020/12/12 03:14:42;;;;;;;45.50;28.58;;;5.10;99.90;;;;;;5052538;28;20208;-82
2020/12/12 03:17:09;;;;;;;51.50;30.13;;;5.10;99.90;;;;;;5052587;28;20208;-83
2020/12/12 03:19:36;;;;;;;48.33;31.33;;;5.10;99.90;;;;;;5055164;28;20495;-84
2020/12/12 03:22:03;;;;;;;48.45;30.10;;;5.10;99.90;;;;;;5058297;28;20419;-84
2020/12/12 03:24:30;;;;;;;50.22;29.52;;;5.00;99.90;;;;;;5059063;28;20252;-83
2020/12/12 03:26:56;;;;;;;42.53;29.23;;;5.10;99.90;;;;;;5058781;28;20192;-83
2020/12/12 03:29:23;;;;;;;38.83;26.98;;;5.00;99.90;;;;;;5058569;28;20410;-86
2020/12/12 03:31:50;;;;;;;47.03;29.92;;;5.10;99.90;;;;;;5058475;28;20272;-83
2020/12/12 03:34:17;;;;;;;42.88;29.60;;;5.00;99.90;;;;;;5058230;28;20206;-83
2020/12/12 03:36:44;;;;;;;47.85;30.48;;;5.10;99.90;;;;;;5058825;28;20173;-84
2020/12/12 03:39:11;;;;;;;40.88;29.30;;;5.00;99.90;;;;;;5058447;28;20215;-85
2020/12/12 03:41:37;;;;;;;40.25;28.67;;;5.10;99.90;;;;;;5058354;28;20276;-84
2020/12/12 03:44:04;;;;;;;41.75;28.67;;;5.10;99.90;;;;;;5058611;28;20203;-84
2020/12/12 03:46:31;;;;;;;42.83;29.08;;;5.10;99.90;;;;;;5058558;28;20176;-85
2020/12/12 03:48:59;;;;;;;38.50;26.95;;;5.10;99.90;;;;;;5058001;28;20263;-83
2020/12/12 03:51:25;;;;;;;41.63;27.02;;;5.10;99.90;;;;;;5058632;28;20255;-84
2020/12/12 03:53:52;;;;;;;46.05;30.23;;;5.30;99.90;;;;;;5052265;28;20200;-84
2020/12/12 03:56:18;;;;;;;47.90;30.88;;;5.20;99.90;;;;;;5040530;28;20196;-84
2020/12/12 03:58:45;;;;;;;47.08;29.73;;;5.20;99.90;;;;;;5041220;28;20254;-84
2020/12/12 04:01:12;;;;;;;40.72;29.23;;;5.20;99.90;;;;;;5039953;28;20216;-83
2020/12/12 04:03:38;;;;;;;47.22;30.67;;;5.20;99.90;;;;;;5040334;28;20219;-84
2020/12/12 04:06:06;;;;;;;47.65;31.58;;;5.20;99.90;;;;;;5040878;28;20204;-83
2020/12/12 04:08:33;;;;;;;43.60;31.00;;;5.20;99.90;;;;;;5043336;28;20444;-84
2020/12/12 04:11:01;;;;;;;45.83;30.77;;;5.20;99.90;;;;;;5057655;28;20212;-85
2020/12/12 04:13:28;;;;;;;49.08;31.58;;;5.10;99.90;;;;;;5055469;28;20208;-84
2020/12/12 04:15:55;;;;;;;48.13;30.75;;;5.10;99.90;;;;;;5046274;28;20196;-84
2020/12/12 04:18:21;;;;;;;47.53;32.88;;;5.00;99.90;;;;;;5046448;28;20290;-85
2020/12/12 04:20:48;;;;;;;56.97;34.90;;;4.90;99.90;;;;;;5047795;28;20238;-84
2020/12/12 04:23:16;;;;;;;47.88;32.75;;;4.80;99.90;;;;;;5055991;28;20202;-82
2020/12/12 04:25:43;;;;;;;50.28;33.55;;;4.90;99.90;;;;;;5057754;28;20195;-84
2020/12/12 04:28:09;;;;;;;48.47;33.30;;;4.90;99.90;;;;;;5057691;28;20180;-84
2020/12/12 04:30:36;;;;;;;48.13;32.92;;;4.90;99.90;;;;;;5057498;28;20228;-86
2020/12/12 04:33:03;;;;;;;58.78;34.88;;;4.90;99.90;;;;;;5058348;28;20187;-84
2020/12/12 04:35:29;;;;;;;59.03;35.38;;;4.80;99.90;;;;;;5057689;28;20210;-85
2020/12/12 04:37:56;;;;;;;48.47;32.88;;;4.90;99.90;;;;;;5057574;28;20184;-84
2020/12/12 04:40:23;;;;;;;51.75;34.70;;;4.90;99.90;;;;;;5057268;28;20288;-84
2020/12/12 04:42:51;;;;;;;54.38;34.80;;;4.90;99.90;;;;;;5057307;28;20188;-85
2020/12/12 04:45:21;;;;;;;53.80;37.00;;;4.80;99.90;;;;;;5054164;28;20311;-83
2020/12/12 04:47:49;;;;;;;56.65;37.45;;;4.80;99.90;;;;;;5044453;28;20227;-85
2020/12/12 04:50:17;;;;;;;51.90;36.03;;;4.80;99.90;;;;;;5047063;28;20220;-85
2020/12/12 04:52:43;;;;;;;52.42;38.80;;;4.80;99.90;;;;;;5046129;28;20204;-85
2020/12/12 04:55:11;;;;;;;53.35;36.92;;;4.80;99.90;;;;;;5045510;28;20212;-84
2020/12/12 04:57:39;;;;;;;54.92;37.05;;;4.80;99.90;;;;;;5043450;28;20258;-85
2020/12/12 05:00:08;;;;;;;45.47;32.15;;;4.80;99.90;;;;;;5044343;28;20675;-84
2020/12/12 05:02:35;;;;;;;48.42;32.10;;;4.80;99.90;;;;;;5047369;28;20204;-83
2020/12/12 05:05:02;;;;;;;51.78;33.22;;;4.80;99.90;;;;;;5046173;28;20191;-83
2020/12/12 05:07:28;;;;;;;46.25;32.35;;;4.80;99.90;;;;;;5047335;28;20201;-83
2020/12/12 05:09:55;;;;;;;51.10;34.30;;;4.90;99.90;;;;;;5055419;28;20224;-85
2020/12/12 05:12:22;;;;;;;45.92;32.92;;;4.80;99.90;;;;;;5056236;28;20247;-84
2020/12/12 05:14:53;;;;;;;46.72;32.13;;;4.80;99.90;;;;;;5058513;28;20203;-84
2020/12/12 05:17:20;;;;;;;47.63;33.90;;;4.80;99.90;;;;;;5060523;28;20234;-85
2020/12/12 05:19:50;;;;;;;40.58;30.45;;;4.80;99.90;;;;;;5059340;28;20223;-83
2020/12/12 05:22:18;;;;;;;48.92;32.17;;;4.80;99.90;;;;;;5059597;28;20296;-84
2020/12/12 05:24:44;;;;;;;42.92;31.40;;;4.80;99.90;;;;;;5060927;28;20190;-83
2020/12/12 05:27:11;;;;;;;53.90;34.63;;;4.80;99.90;;;;;;5060878;28;20219;-83
2020/12/12 05:29:39;;;;;;;50.10;34.80;;;4.80;99.90;;;;;;5060667;28;20211;-84
2020/12/12 05:32:06;;;;;;;53.47;34.65;;;4.80;99.90;;;;;;5060628;28;20200;-84
2020/12/12 05:34:33;;;;;;;50.67;31.77;;;4.80;99.90;;;;;;5050238;28;20576;-82
2020/12/12 05:36:59;;;;;;;48.92;33.20;;;4.90;99.90;;;;;;5053331;28;20204;-83
2020/12/12 05:39:26;;;;;;;54.60;32.58;;;4.90;99.90;;;;;;5052387;28;20204;-82
2020/12/12 05:41:52;;;;;;;51.08;33.78;;;4.90;99.90;;;;;;5054073;28;20224;-84
2020/12/12 05:44:20;;;;;;;49.53;33.33;;;4.90;99.90;;;;;;5053424;28;20216;-83
2020/12/12 05:46:47;;;;;;;47.88;33.35;;;4.90;99.90;;;;;;5047474;28;20212;-84
2020/12/12 05:49:15;;;;;;;46.85;31.45;;;4.90;99.90;;;;;;5046090;28;20228;-83
2020/12/12 05:51:42;;;;;;;43.17;30.98;;;5.00;99.90;;;;;;5045494;28;20224;-85
2020/12/12 05:54:08;;;;;;;47.30;30.20;;;4.90;99.90;;;;;;5048559;28;20204;-83
2020/12/12 05:56:38;;;;;;;51.03;33.97;;;5.00;99.90;;;;;;5048249;28;20215;-83
2020/12/12 05:59:05;;;;;;;52.42;34.05;;;5.00;99.90;;;;;;5053950;28;20195;-84
2020/12/12 06:01:34;;;;;;;49.38;34.80;;;4.90;99.90;;;;;;5055161;28;20220;-82
2020/12/12 06:04:08;;;;;;;46.22;30.63;;;4.80;99.90;;;;;;5054919;28;20184;-83
2020/12/12 06:06:43;;;;;;;45.67;31.20;;;4.70;99.90;;;;;;5054463;28;20180;-83
2020/12/12 06:09:13;;;;;;;47.92;33.92;;;4.70;99.90;;;;;;5050188;28;20239;-82
2020/12/12 06:11:42;;;;;;;43.08;32.17;;;4.70;99.90;;;;;;5048836;28;20278;-84
2020/12/12 06:14:09;;;;;;;54.42;33.88;;;4.70;99.90;;;;;;5045494;28;20215;-83
2020/12/12 06:16:36;;;;;;;44.83;31.63;;;4.80;99.90;;;;;;5044806;28;20204;-84
2020/12/12 06:19:12;;;;;;;45.90;32.38;;;4.80;99.90;;;;;;5044207;28;20287;-82
2020/12/12 06:21:41;;;;;;;48.65;35.88;;;4.70;99.90;;;;;;5044488;28;20230;-83
2020/12/12 06:24:10;;;;;;;50.78;34.65;;;4.70;99.90;;;;;;5044211;28;20184;-83
2020/12/12 06:26:50;;;;;;;50.45;33.03;;;4.70;99.90;;;;;;5043692;28;20241;-83
2020/12/12 06:29:19;;;;;;;45.00;31.45;;;4.70;99.90;;;;;;5042957;28;20569;-84
2020/12/12 06:31:46;;;;;;;54.15;32.47;;;4.70;99.90;;;;;;5043783;28;20200;-83
2020/12/12 06:34:13;;;;;;;50.75;35.20;;;4.70;99.90;;;;;;5044417;28;20205;-83
2020/12/12 06:36:47;;;;;;;60.00;37.75;;;4.80;99.90;;;;;;5039001;28;20207;-83
2020/12/12 06:39:22;;;;;;;50.83;34.22;;;4.80;99.90;;;;;;5042938;28;20235;-84
2020/12/12 06:41:50;;;;;;;51.58;33.90;;;4.80;99.90;;;;;;5044046;28;20228;-83
2020/12/12 06:44:33;;;;;;;53.42;35.88;;;4.80;99.90;;;;;;5043527;28;20198;-85
2020/12/12 06:47:00;;;;;;;42.80;33.25;;;4.80;99.90;;;;;;5048857;28;20211;-85
2020/12/12 06:49:27;;;;;;;44.30;30.00;;;4.90;99.90;;;;;;5043387;28;20227;-85
2020/12/12 06:51:55;;;;;;;47.08;29.95;;;4.90;99.90;;;;;;5043563;28;20228;-83
2020/12/12 06:54:22;;;;;;;50.72;33.55;;;4.90;99.90;;;;;;5044368;28;20223;-83
2020/12/12 06:56:49;;;;;;;46.03;29.45;;;4.90;99.90;;;;;;5044358;28;20211;-84
2020/12/12 06:59:30;;;;;;;47.05;33.33;;;4.90;99.90;;;;;;5043967;28;20200;-84
2020/12/12 07:01:59;;;;;;;53.90;33.85;;;4.90;99.90;;;;;;5043131;28;20227;-83
2020/12/12 07:04:28;;;;;;;44.50;29.70;;;4.90;99.90;;;;;;5043756;28;20212;-83
2020/12/12 07:07:07;;;;;;;41.72;30.63;;;5.00;99.90;;;;;;5055711;28;20200;-84
2020/12/12 07:09:35;;;;;;;51.38;31.00;;;4.90;99.90;;;;;;5059271;28;20212;-85
2020/12/12 07:12:02;;;;;;;52.03;30.88;;;4.90;99.90;;;;;;5059254;28;20223;-85
2020/12/12 07:14:28;;;;;;;49.85;32.35;;;4.90;99.90;;;;;;5059121;28;20206;-85
2020/12/12 07:16:57;;;;;;;54.33;32.78;;;4.90;99.90;;;;;;5059198;28;20311;-84
2020/12/12 07:19:37;;;;;;;44.67;32.38;;;4.90;99.90;;;;;;5058860;28;20200;-85
2020/12/12 07:22:06;;;;;;;48.28;33.55;;;5.00;99.90;;;;;;5058061;28;20224;-85
2020/12/12 07:24:34;;;;;;;52.95;34.45;;;4.90;99.90;;;;;;5053385;28;20204;-83
2020/12/12 07:27:02;;;;;;;48.92;33.58;;;4.90;99.90;;;;;;5043790;28;20204;-84
2020/12/12 07:29:29;;;;;;;44.88;31.35;;;4.90;99.90;;;;;;5043646;28;20239;-83
2020/12/12 07:31:57;;;;;;;46.58;29.95;;;4.80;99.90;;;;;;5045325;28;20232;-82
2020/12/12 07:34:25;;;;;;;45.75;31.90;;;4.80;99.90;;;;;;5058269;28;20242;-82
2020/12/12 07:36:59;;;;;;;47.05;32.20;;;4.90;99.90;;;;;;5058084;28;20188;-83
2020/12/12 07:39:32;;;;;;;50.17;32.75;;;4.90;99.90;;;;;;5037734;28;20200;-83
2020/12/12 07:41:59;;;;;;;46.17;30.05;;;4.90;99.90;;;;;;5037863;28;20269;-84
2020/12/12 07:44:28;;;;;;;52.35;33.28;;;5.00;99.90;;;;;;5031438;28;20204;-84
2020/12/12 07:46:59;;;;;;;51.05;32.70;;;5.00;99.90;;;;;;5024226;28;20236;-84
2020/12/12 07:49:26;;;;;;;45.80;31.20;;;5.00;99.90;;;;;;5022831;28;20217;-83
2020/12/12 07:52:04;;;;;;;46.45;32.63;;;5.00;99.90;;;;;;5022514;28;20229;-84
2020/12/12 07:54:42;;;;;;;45.85;31.95;;;5.10;99.90;;;;;;5021932;28;20208;-84
2020/12/12 07:57:14;;;;;;;47.80;31.27;;;5.10;99.90;;;;;;5021609;28;20193;-85
2020/12/12 07:59:41;;;;;;;44.08;30.40;;;5.10;99.90;;;;;;5020965;28;20200;-82
2020/12/12 08:02:10;;;;;;;43.42;30.60;;;5.10;99.90;;;;;;5019186;28;20243;-83
2020/12/12 08:04:37;;;;;;;48.28;31.92;;;5.20;99.90;;;;;;5032785;28;20200;-83
2020/12/12 08:07:15;;;;;;;52.78;34.08;;;5.10;99.90;;;;;;5054654;28;20264;-83
2020/12/12 08:09:50;;;;;;;41.80;30.45;;;5.10;99.90;;;;;;5055213;28;20284;-84
2020/12/12 08:12:28;;;;;;;42.78;28.10;;;5.10;99.90;;;;;;5050898;28;20656;-82
2020/12/12 08:14:57;;;;;;;46.85;32.97;;;5.20;99.90;;;;;;5038700;28;20559;-82
2020/12/12 08:17:28;;;;;;;47.13;31.30;;;5.20;99.90;;;;;;5038762;28;20274;-84
2020/12/12 08:19:54;;;;;;;43.35;28.77;;;5.10;99.90;;;;;;5041883;28;20193;-84
2020/12/12 08:22:23;;;;;;;48.00;31.50;;;5.20;99.90;;;;;;5043506;28;20255;-85
2020/12/12 08:24:51;;;;;;;44.42;34.70;;;5.20;99.90;;;;;;5043857;28;20200;-87
2020/12/12 08:27:23;;;;;;;55.80;36.17;;;5.20;99.90;;;;;;5043635;28;20212;-85
2020/12/12 08:29:51;;;;;;;55.47;36.75;;;5.20;99.90;;;;;;5042106;28;20214;-86
2020/12/12 08:32:31;;;;;;;46.83;34.85;;;5.20;99.90;;;;;;5043596;28;21589;-87
2020/12/12 08:35:08;;;;;;;47.28;31.80;;;5.30;99.90;;;;;;5043760;28;20194;-87
2020/12/12 08:37:35;;;;;;;48.05;32.70;;;5.30;99.90;;;;;;5040219;28;20203;-85
2020/12/12 08:40:07;;;;;;;45.17;31.85;;;5.30;99.90;;;;;;5043503;28;20645;-85
2020/12/12 08:42:33;;;;;;;48.13;32.15;;;5.30;99.90;;;;;;5048491;28;20180;-85
2020/12/12 08:45:16;;;;;;;52.50;34.13;;;5.20;99.90;;;;;;5049542;28;20196;-85
2020/12/12 08:47:43;;;;;;;45.38;32.15;;;5.20;99.90;;;;;;5051439;28;20208;-86
2020/12/12 08:50:10;;;;;;;47.55;33.50;;;5.20;99.90;;;;;;5050404;28;20239;-85
2020/12/12 08:52:39;;;;;;;42.40;30.00;;;5.20;99.90;;;;;;5051051;28;20220;-86
2020/12/12 08:55:11;;;;;;;47.17;31.15;;;5.30;99.90;;;;;;5051511;28;20208;-85
2020/12/12 08:57:38;;;;;;;45.03;30.75;;;5.30;99.90;;;;;;5050367;28;20200;-87
2020/12/12 09:00:05;;;;;;;45.95;29.75;;;5.30;99.90;;;;;;5046157;28;20204;-86
2020/12/12 09:02:32;;;;;;;49.83;32.25;;;5.30;99.90;;;;;;5049763;28;20188;-85
2020/12/12 09:05:09;;;;;;;47.85;31.95;;;5.40;99.90;;;;;;5054959;28;20267;-84
2020/12/12 09:07:36;;;;;;;45.90;30.77;;;5.30;99.90;;;;;;5055598;28;20226;-87
2020/12/12 09:10:12;;;;;;;40.92;31.13;;;5.30;99.90;;;;;;5055120;28;20228;-85
2020/12/12 09:12:46;;;;;;;43.60;28.88;;;5.30;99.90;;;;;;5042532;28;20196;-85
2020/12/12 09:15:13;;;;;;;39.15;28.88;;;5.40;99.90;;;;;;5040751;28;20295;-86
2020/12/12 09:17:39;;;;;;;42.50;29.30;;;5.50;99.90;;;;;;5041137;28;20189;-87
2020/12/12 09:20:07;;;;;;;45.35;31.55;;;5.50;99.90;;;;;;5042010;28;20612;-87
2020/12/12 09:22:34;;;;;;;42.05;30.05;;;5.60;99.90;;;;;;5044000;28;20216;-86
2020/12/12 09:25:01;;;;;;;43.65;30.70;;;5.70;99.90;;;;;;5043395;28;20208;-87
2020/12/12 09:27:28;;;;;;;35.92;26.70;;;5.80;99.90;;;;;;5046425;28;20226;-86
2020/12/12 09:29:55;;;;;;;50.63;30.58;;;5.80;99.90;;;;;;5049293;28;20227;-84
2020/12/12 09:32:22;;;;;;;47.15;32.03;;;5.90;99.90;;;;;;5055813;28;20223;-84
2020/12/12 09:34:48;;;;;;;40.63;27.55;;;5.80;99.90;;;;;;5055925;28;20220;-84
2020/12/12 09:37:15;;;;;;;44.28;28.20;;;5.80;99.90;;;;;;5054593;28;20224;-87
2020/12/12 09:39:42;;;;;;;38.95;28.70;;;5.80;99.90;;;;;;5055750;28;20230;-85
2020/12/12 09:45:48;;;;;;;39.50;27.63;;;5.90;99.90;;;;;;5022349;28;20219;-88
2020/12/12 09:48:16;;;;;;;41.25;27.55;;;5.80;99.90;;;;;;5043732;28;20220;-86
2020/12/12 09:50:42;;;;;;;42.20;28.98;;;5.80;99.90;;;;;;5046301;28;20232;-86
2020/12/12 09:53:10;;;;;;;40.33;30.30;;;5.70;99.90;;;;;;5042419;28;20200;-84
2020/12/12 09:55:39;;;;;;;43.92;28.92;;;5.90;99.90;;;;;;5045619;28;20262;-85
2020/12/12 09:58:07;;;;;;;39.13;27.10;;;6.00;99.90;;;;;;5047104;28;20215;-85
2020/12/12 10:00:35;;;;;;;40.63;28.45;;;6.10;99.90;;;;;;5045226;28;20224;-83
2020/12/12 10:03:02;;;;;;;39.13;29.88;;;6.20;99.90;;;;;;5044759;28;20644;-85
2020/12/12 10:05:29;;;;;;;39.90;29.85;;;6.20;99.90;;;;;;5044978;28;20200;-85
2020/12/12 10:07:56;;;;;;;41.75;27.05;;;6.20;99.90;;;;;;5045979;28;20230;-85
2020/12/12 10:10:23;;;;;;;38.20;27.98;;;6.10;99.90;;;;;;5044238;28;20653;-86
2020/12/12 10:12:49;;;;;;;38.83;27.13;;;6.10;99.90;;;;;;5045268;28;20256;-86
2020/12/12 10:15:17;;;;;;;45.88;28.08;;;6.00;99.90;;;;;;5043672;28;20633;-86
2020/12/12 10:17:44;;;;;;;43.85;29.45;;;6.00;99.90;;;;;;5044339;28;20205;-84
2020/12/12 10:20:11;;;;;;;38.83;28.15;;;5.90;99.90;;;;;;5044722;28;20223;-85
2020/12/12 10:22:39;;;;;;;41.17;28.90;;;6.00;99.90;;;;;;5043207;28;20204;-86
2020/12/12 10:25:07;;;;;;;46.97;31.27;;;5.90;99.90;;;;;;5043455;28;20189;-87
2020/12/12 10:27:33;;;;;;;40.80;27.05;;;5.90;99.90;;;;;;5043207;28;20208;-86
2020/12/12 10:30:00;;;;;;;39.67;28.08;;;5.90;99.90;;;;;;5043544;28;20215;-87
2020/12/12 10:32:41;;;;;;;42.05;28.90;;;5.90;99.90;;;;;;5044792;28;20330;-87
2020/12/12 10:35:11;;;;;;;44.95;29.90;;;5.80;99.90;;;;;;5045197;28;20426;-85
2020/12/12 10:37:43;;;;;;;44.40;30.15;;;5.90;99.90;;;;;;5046106;28;20200;-87
2020/12/12 10:40:15;;;;;;;45.03;32.20;;;6.00;99.90;;;;;;5045378;28;20212;-86
2020/12/12 10:42:42;;;;;;;41.60;27.77;;;5.90;99.90;;;;;;5046628;28;20188;-87
2020/12/12 10:45:14;;;;;;;35.03;26.63;;;5.90;99.90;;;;;;5044160;28;20567;-86
2020/12/12 10:47:41;;;;;;;40.28;28.35;;;5.90;99.90;;;;;;5046068;28;20268;-85
2020/12/12 10:50:08;;;;;;;46.50;28.02;;;5.80;99.90;;;;;;5045596;28;20228;-87
2020/12/12 10:52:35;;;;;;;41.33;27.75;;;5.80;99.90;;;;;;5047626;28;20230;-86
2020/12/12 10:55:02;;;;;;;37.78;28.02;;;5.70;99.90;;;;;;5046984;28;20215;-86
2020/12/12 10:57:29;;;;;;;44.30;35.55;;;5.70;99.90;;;;;;5045855;28;20235;-87
2020/12/12 10:59:55;;;;;;;46.53;29.92;;;5.70;99.90;;;;;;5046020;28;20200;-86
2020/12/12 11:02:22;;;;;;;46.25;30.88;;;5.70;99.90;;;;;;5046005;28;20235;-85
2020/12/12 11:04:48;;;;;;;38.40;27.45;;;5.70;99.90;;;;;;5046824;28;20288;-86
2020/12/12 11:07:16;;;;;;;40.92;30.50;;;5.80;99.90;;;;;;5047153;28;20200;-87
2020/12/12 11:09:43;;;;;;;36.28;28.90;;;5.90;99.90;;;;;;5046685;28;20227;-86
2020/12/12 11:12:14;;;;;;;42.60;27.63;;;6.00;99.90;;;;;;5045592;28;20727;-86
2020/12/12 11:14:41;;;;;;;48.85;30.85;;;5.90;99.90;;;;;;5048016;28;20385;-85
2020/12/12 11:17:08;;;;;;;39.13;28.10;;;5.90;99.90;;;;;;5046200;28;20188;-85
2020/12/12 11:19:35;;;;;;;37.78;27.42;;;6.00;99.90;;;;;;5045892;28;20223;-85
2020/12/12 11:22:01;;;;;;;42.35;28.08;;;6.10;99.90;;;;;;5047371;28;20232;-87
2020/12/12 11:24:29;;;;;;;40.08;29.40;;;6.10;99.90;;;;;;5046933;28;20200;-85
2020/12/12 11:26:55;;;;;;;44.03;31.33;;;6.10;99.90;;;;;;5045977;28;20204;-87
2020/12/12 11:29:22;;;;;;;36.85;29.23;;;6.00;99.90;;;;;;5045322;28;20599;-86
2020/12/12 11:31:51;;;;;;;41.65;27.80;;;6.10;99.90;;;;;;5044947;28;20224;-86
2020/12/12 11:34:22;;;;;;;39.47;27.55;;;6.10;99.90;;;;;;5045867;28;20205;-86
2020/12/12 11:37:02;;;;;;;48.85;27.48;;;6.20;99.90;;;;;;5046076;28;20222;-87
2020/12/12 11:39:35;;;;;;;36.50;27.08;;;6.20;99.90;;;;;;5046392;28;20212;-87
2020/12/12 11:47:33;;;;;;;35.78;25.48;;;6.20;99.90;;;;;;5046209;28;20200;-85
2020/12/12 11:49:59;;;;;;;40.65;26.35;;;6.20;99.90;;;;;;5046853;28;20288;-85
2020/12/12 11:52:26;;;;;;;32.83;23.77;;;6.30;99.90;;;;;;5047005;28;20201;-86
2020/12/12 11:54:54;;;;;;;38.08;26.55;;;6.20;99.90;;;;;;5047133;28;20201;-85
2020/12/12 11:57:20;;;;;;;34.78;24.98;;;6.20;99.90;;;;;;5045093;28;20311;-87
2020/12/12 11:59:47;;;;;;;39.78;26.25;;;6.20;99.90;;;;;;5043513;28;20209;-86
2020/12/12 12:02:14;;;;;;;33.22;24.85;;;6.40;99.90;;;;;;5040250;28;20292;-86
2020/12/12 12:04:41;;;;;;;32.90;23.73;;;6.40;99.90;;;;;;5041856;28;20200;-86
2020/12/12 12:07:07;;;;;;;36.17;24.30;;;6.50;99.90;;;;;;5043678;28;20197;-85
2020/12/12 12:09:38;;;;;;;36.60;24.38;;;6.60;99.90;;;;;;5043457;28;20213;-86
2020/12/12 12:12:06;;;;;;;34.30;25.42;;;6.60;99.90;;;;;;5042915;28;20291;-86
2020/12/12 12:14:32;;;;;;;34.60;23.88;;;6.50;99.90;;;;;;5043022;28;20262;-86
2020/12/12 12:16:59;;;;;;;33.15;24.30;;;6.60;99.90;;;;;;5042386;28;20228;-85
2020/12/12 12:19:25;;;;;;;33.80;24.92;;;6.50;99.90;;;;;;5042668;28;20723;-85
2020/12/12 12:21:52;;;;;;;33.28;24.80;;;6.50;99.90;;;;;;5042948;28;20232;-85
2020/12/12 12:24:21;;;;;;;36.38;25.65;;;6.50;99.90;;;;;;5042607;28;20207;-85
2020/12/12 12:26:49;;;;;;;32.75;25.83;;;6.40;99.90;;;;;;5043685;28;20575;-85
2020/12/12 12:29:17;;;;;;;33.92;25.70;;;6.40;99.90;;;;;;5042498;28;20206;-85
2020/12/12 12:31:45;;;;;;;32.33;24.75;;;6.40;99.90;;;;;;5042022;28;20222;-86
2020/12/12 12:34:12;;;;;;;39.92;24.73;;;6.40;99.90;;;;;;5043885;28;20223;-86
2020/12/12 12:36:40;;;;;;;31.60;23.88;;;6.60;99.90;;;;;;5043656;28;20205;-86
2020/12/12 12:39:08;;;;;;;35.35;26.63;;;6.60;99.90;;;;;;5044098;28;20230;-85
2020/12/12 12:41:38;;;;;;;36.50;25.55;;;6.70;99.90;;;;;;5043512;28;20225;-85
2020/12/12 12:44:05;;;;;;;42.90;33.47;;;6.70;99.90;;;;;;5041742;28;20207;-85
2020/12/12 12:46:34;;;;;;;43.10;31.73;;;6.80;99.90;;;;;;5041106;28;20221;-85
2020/12/12 12:49:01;;;;;;;39.10;25.25;;;6.70;99.90;;;;;;5045621;28;20185;-84